<?xml version="1.0" encoding="UTF-8" standalone="no" ?>
<gpx xmlns="http://www.topografix.com/GPX/1/1" xmlns:xsi="http://www.w3.org/2001/XMLSchema-instance" xsi:schemaLocation="http://www.topografix.com/GPX/1/1 http://www.topografix.com/GPX/1/1/gpx.xsd" version="1.1" creator="VisuGPX - https://www.visugpx.com">
  <metadata>
    <name>Tête de l'Obiou </name>
    <desc><![CDATA[Aller-retour Tête de l'Obiou depuis col des Faïsses]]></desc>
  </metadata>
  <trk>
    <name><![CDATA[Tête de l'Obiou _1]]></name>
    <trkseg>
      <trkpt lat="44.78443" lon="5.87515">
        <ele>1553.2</ele>
        <time>2009-07-26T02:00:53Z</time>
      </trkpt>
      <trkpt lat="44.7844" lon="5.87527">
        <ele>1556.6</ele>
        <time>2009-07-26T02:03:36Z</time>
      </trkpt>
      <trkpt lat="44.78439" lon="5.87528">
        <ele>1557</ele>
        <time>2009-07-26T02:03:52Z</time>
      </trkpt>
      <trkpt lat="44.78411" lon="5.87531">
        <ele>1556.9</ele>
        <time>2009-07-26T02:04:37Z</time>
      </trkpt>
      <trkpt lat="44.78352" lon="5.87547">
        <ele>1565.2</ele>
        <time>2009-07-26T02:05:29Z</time>
      </trkpt>
      <trkpt lat="44.78301" lon="5.87565">
        <ele>1575.4</ele>
        <time>2009-07-26T02:06:21Z</time>
      </trkpt>
      <trkpt lat="44.78247" lon="5.87581">
        <ele>1582.8</ele>
        <time>2009-07-26T02:07:15Z</time>
      </trkpt>
      <trkpt lat="44.78223" lon="5.87581">
        <ele>1590.4</ele>
        <time>2009-07-26T02:07:54Z</time>
      </trkpt>
      <trkpt lat="44.7819" lon="5.87584">
        <ele>1600.9</ele>
        <time>2009-07-26T02:08:44Z</time>
      </trkpt>
      <trkpt lat="44.78161" lon="5.87603">
        <ele>1608</ele>
        <time>2009-07-26T02:09:29Z</time>
      </trkpt>
      <trkpt lat="44.78129" lon="5.87617">
        <ele>1617.2</ele>
        <time>2009-07-26T02:10:20Z</time>
      </trkpt>
      <trkpt lat="44.78121" lon="5.87617">
        <ele>1620.4</ele>
        <time>2009-07-26T02:10:39Z</time>
      </trkpt>
      <trkpt lat="44.78104" lon="5.87624">
        <ele>1625.1</ele>
        <time>2009-07-26T02:11:18Z</time>
      </trkpt>
      <trkpt lat="44.78084" lon="5.87633">
        <ele>1631.4</ele>
        <time>2009-07-26T02:11:51Z</time>
      </trkpt>
      <trkpt lat="44.78053" lon="5.87646">
        <ele>1640.6</ele>
        <time>2009-07-26T02:12:45Z</time>
      </trkpt>
      <trkpt lat="44.78025" lon="5.87663">
        <ele>1646.8</ele>
        <time>2009-07-26T02:13:32Z</time>
      </trkpt>
      <trkpt lat="44.78018" lon="5.87656">
        <ele>1650.4</ele>
        <time>2009-07-26T02:14:11Z</time>
      </trkpt>
      <trkpt lat="44.78008" lon="5.87658">
        <ele>1653.4</ele>
        <time>2009-07-26T02:14:32Z</time>
      </trkpt>
      <trkpt lat="44.78009" lon="5.87634">
        <ele>1658.3</ele>
        <time>2009-07-26T02:15:02Z</time>
      </trkpt>
      <trkpt lat="44.78008" lon="5.87611">
        <ele>1663.8</ele>
        <time>2009-07-26T02:15:32Z</time>
      </trkpt>
      <trkpt lat="44.77997" lon="5.87584">
        <ele>1670.7</ele>
        <time>2009-07-26T02:16:10Z</time>
      </trkpt>
      <trkpt lat="44.77971" lon="5.87572">
        <ele>1678.4</ele>
        <time>2009-07-26T02:19:57Z</time>
      </trkpt>
      <trkpt lat="44.7795" lon="5.8755">
        <ele>1684.7</ele>
        <time>2009-07-26T02:20:37Z</time>
      </trkpt>
      <trkpt lat="44.77936" lon="5.87535">
        <ele>1688.6</ele>
        <time>2009-07-26T02:21:07Z</time>
      </trkpt>
      <trkpt lat="44.77916" lon="5.87514">
        <ele>1693.1</ele>
        <time>2009-07-26T02:21:47Z</time>
      </trkpt>
      <trkpt lat="44.77887" lon="5.87484">
        <ele>1698.4</ele>
        <time>2009-07-26T02:22:29Z</time>
      </trkpt>
      <trkpt lat="44.77852" lon="5.87459">
        <ele>1704.5</ele>
        <time>2009-07-26T02:23:14Z</time>
      </trkpt>
      <trkpt lat="44.77834" lon="5.87438">
        <ele>1707.1</ele>
        <time>2009-07-26T02:23:50Z</time>
      </trkpt>
      <trkpt lat="44.77815" lon="5.87422">
        <ele>1709.2</ele>
        <time>2009-07-26T02:24:14Z</time>
      </trkpt>
      <trkpt lat="44.77795" lon="5.87393">
        <ele>1711.6</ele>
        <time>2009-07-26T02:24:48Z</time>
      </trkpt>
      <trkpt lat="44.77779" lon="5.87359">
        <ele>1713</ele>
        <time>2009-07-26T02:25:22Z</time>
      </trkpt>
      <trkpt lat="44.77769" lon="5.87323">
        <ele>1717.1</ele>
        <time>2009-07-26T02:25:58Z</time>
      </trkpt>
      <trkpt lat="44.77752" lon="5.87301">
        <ele>1722.1</ele>
        <time>2009-07-26T02:26:31Z</time>
      </trkpt>
      <trkpt lat="44.77734" lon="5.87267">
        <ele>1728.2</ele>
        <time>2009-07-26T02:27:10Z</time>
      </trkpt>
      <trkpt lat="44.7773" lon="5.87247">
        <ele>1730.4</ele>
        <time>2009-07-26T02:27:38Z</time>
      </trkpt>
      <trkpt lat="44.77728" lon="5.87209">
        <ele>1733.1</ele>
        <time>2009-07-26T02:29:19Z</time>
      </trkpt>
      <trkpt lat="44.77729" lon="5.87134">
        <ele>1736.7</ele>
        <time>2009-07-26T02:30:08Z</time>
      </trkpt>
      <trkpt lat="44.77734" lon="5.87051">
        <ele>1740.4</ele>
        <time>2009-07-26T02:31:01Z</time>
      </trkpt>
      <trkpt lat="44.77744" lon="5.86983">
        <ele>1745.8</ele>
        <time>2009-07-26T02:31:51Z</time>
      </trkpt>
      <trkpt lat="44.77744" lon="5.86917">
        <ele>1750.8</ele>
        <time>2009-07-26T02:32:39Z</time>
      </trkpt>
      <trkpt lat="44.77746" lon="5.8685">
        <ele>1756.4</ele>
        <time>2009-07-26T02:33:26Z</time>
      </trkpt>
      <trkpt lat="44.77746" lon="5.86779">
        <ele>1762.4</ele>
        <time>2009-07-26T02:34:17Z</time>
      </trkpt>
      <trkpt lat="44.77741" lon="5.86709">
        <ele>1766.7</ele>
        <time>2009-07-26T02:35:08Z</time>
      </trkpt>
      <trkpt lat="44.77734" lon="5.86645">
        <ele>1771.9</ele>
        <time>2009-07-26T02:35:57Z</time>
      </trkpt>
      <trkpt lat="44.77741" lon="5.86611">
        <ele>1774.1</ele>
        <time>2009-07-26T02:36:26Z</time>
      </trkpt>
      <trkpt lat="44.77746" lon="5.86552">
        <ele>1778.7</ele>
        <time>2009-07-26T02:37:08Z</time>
      </trkpt>
      <trkpt lat="44.77738" lon="5.86503">
        <ele>1785.1</ele>
        <time>2009-07-26T02:37:52Z</time>
      </trkpt>
      <trkpt lat="44.77726" lon="5.86451">
        <ele>1791.5</ele>
        <time>2009-07-26T02:38:41Z</time>
      </trkpt>
      <trkpt lat="44.77714" lon="5.86399">
        <ele>1797</ele>
        <time>2009-07-26T02:39:33Z</time>
      </trkpt>
      <trkpt lat="44.77704" lon="5.86353">
        <ele>1801.6</ele>
        <time>2009-07-26T02:40:20Z</time>
      </trkpt>
      <trkpt lat="44.777" lon="5.86296">
        <ele>1808.2</ele>
        <time>2009-07-26T02:41:15Z</time>
      </trkpt>
      <trkpt lat="44.77697" lon="5.8625">
        <ele>1815.7</ele>
        <time>2009-07-26T02:42:01Z</time>
      </trkpt>
      <trkpt lat="44.77692" lon="5.86211">
        <ele>1824.8</ele>
        <time>2009-07-26T02:42:50Z</time>
      </trkpt>
      <trkpt lat="44.77691" lon="5.86182">
        <ele>1830.3</ele>
        <time>2009-07-26T02:43:35Z</time>
      </trkpt>
      <trkpt lat="44.77689" lon="5.86167">
        <ele>1833.6</ele>
        <time>2009-07-26T02:44:12Z</time>
      </trkpt>
      <trkpt lat="44.77685" lon="5.86141">
        <ele>1840.3</ele>
        <time>2009-07-26T02:44:49Z</time>
      </trkpt>
      <trkpt lat="44.77686" lon="5.86117">
        <ele>1846.2</ele>
        <time>2009-07-26T02:45:22Z</time>
      </trkpt>
      <trkpt lat="44.77682" lon="5.86098">
        <ele>1852.3</ele>
        <time>2009-07-26T02:46:02Z</time>
      </trkpt>
      <trkpt lat="44.77684" lon="5.86074">
        <ele>1858.9</ele>
        <time>2009-07-26T02:46:35Z</time>
      </trkpt>
      <trkpt lat="44.77685" lon="5.86059">
        <ele>1864</ele>
        <time>2009-07-26T02:47:02Z</time>
      </trkpt>
      <trkpt lat="44.77691" lon="5.86031">
        <ele>1873</ele>
        <time>2009-07-26T02:47:48Z</time>
      </trkpt>
      <trkpt lat="44.77696" lon="5.86017">
        <ele>1877.8</ele>
        <time>2009-07-26T02:48:13Z</time>
      </trkpt>
      <trkpt lat="44.77702" lon="5.85997">
        <ele>1886.3</ele>
        <time>2009-07-26T02:48:51Z</time>
      </trkpt>
      <trkpt lat="44.77722" lon="5.85983">
        <ele>1889.8</ele>
        <time>2009-07-26T02:49:58Z</time>
      </trkpt>
      <trkpt lat="44.77734" lon="5.85962">
        <ele>1893</ele>
        <time>2009-07-26T02:50:34Z</time>
      </trkpt>
      <trkpt lat="44.77736" lon="5.85943">
        <ele>1895.2</ele>
        <time>2009-07-26T02:51:04Z</time>
      </trkpt>
      <trkpt lat="44.7774" lon="5.8593">
        <ele>1893.7</ele>
        <time>2009-07-26T02:51:45Z</time>
      </trkpt>
      <trkpt lat="44.77759" lon="5.85903">
        <ele>1888.9</ele>
        <time>2009-07-26T02:52:22Z</time>
      </trkpt>
      <trkpt lat="44.77774" lon="5.85876">
        <ele>1887.9</ele>
        <time>2009-07-26T02:52:54Z</time>
      </trkpt>
      <trkpt lat="44.77781" lon="5.85835">
        <ele>1888.4</ele>
        <time>2009-07-26T02:53:35Z</time>
      </trkpt>
      <trkpt lat="44.77775" lon="5.85798">
        <ele>1893.7</ele>
        <time>2009-07-26T02:54:12Z</time>
      </trkpt>
      <trkpt lat="44.77778" lon="5.85752">
        <ele>1897.7</ele>
        <time>2009-07-26T02:54:57Z</time>
      </trkpt>
      <trkpt lat="44.77793" lon="5.85716">
        <ele>1901.7</ele>
        <time>2009-07-26T02:55:40Z</time>
      </trkpt>
      <trkpt lat="44.77817" lon="5.85671">
        <ele>1908.1</ele>
        <time>2009-07-26T02:56:32Z</time>
      </trkpt>
      <trkpt lat="44.77829" lon="5.85641">
        <ele>1912.6</ele>
        <time>2009-07-26T02:57:14Z</time>
      </trkpt>
      <trkpt lat="44.77854" lon="5.8563">
        <ele>1915.2</ele>
        <time>2009-07-26T02:57:47Z</time>
      </trkpt>
      <trkpt lat="44.77883" lon="5.85625">
        <ele>1916.2</ele>
        <time>2009-07-26T02:58:27Z</time>
      </trkpt>
      <trkpt lat="44.77898" lon="5.8561">
        <ele>1919.1</ele>
        <time>2009-07-26T02:58:55Z</time>
      </trkpt>
      <trkpt lat="44.77898" lon="5.85612">
        <ele>1918.5</ele>
        <time>2009-07-26T02:59:09Z</time>
      </trkpt>
      <trkpt lat="44.77908" lon="5.85592">
        <ele>1920.9</ele>
        <time>2009-07-26T03:00:10Z</time>
      </trkpt>
      <trkpt lat="44.77912" lon="5.85564">
        <ele>1926.6</ele>
        <time>2009-07-26T03:00:53Z</time>
      </trkpt>
      <trkpt lat="44.7793" lon="5.85539">
        <ele>1931.3</ele>
        <time>2009-07-26T03:01:55Z</time>
      </trkpt>
      <trkpt lat="44.77961" lon="5.85523">
        <ele>1934.1</ele>
        <time>2009-07-26T03:02:43Z</time>
      </trkpt>
      <trkpt lat="44.77972" lon="5.85495">
        <ele>1939.3</ele>
        <time>2009-07-26T03:03:19Z</time>
      </trkpt>
      <trkpt lat="44.77962" lon="5.85448">
        <ele>1943.7</ele>
        <time>2009-07-26T03:04:00Z</time>
      </trkpt>
      <trkpt lat="44.77972" lon="5.85403">
        <ele>1948</ele>
        <time>2009-07-26T03:04:40Z</time>
      </trkpt>
      <trkpt lat="44.77991" lon="5.85361">
        <ele>1955.1</ele>
        <time>2009-07-26T03:05:31Z</time>
      </trkpt>
      <trkpt lat="44.78018" lon="5.85342">
        <ele>1958.9</ele>
        <time>2009-07-26T03:06:15Z</time>
      </trkpt>
      <trkpt lat="44.78055" lon="5.85326">
        <ele>1961.8</ele>
        <time>2009-07-26T03:06:57Z</time>
      </trkpt>
      <trkpt lat="44.78092" lon="5.85299">
        <ele>1967</ele>
        <time>2009-07-26T03:07:44Z</time>
      </trkpt>
      <trkpt lat="44.78126" lon="5.85265">
        <ele>1971.7</ele>
        <time>2009-07-26T03:08:32Z</time>
      </trkpt>
      <trkpt lat="44.78159" lon="5.85247">
        <ele>1975.2</ele>
        <time>2009-07-26T03:09:15Z</time>
      </trkpt>
      <trkpt lat="44.78168" lon="5.85233">
        <ele>1980.2</ele>
        <time>2009-07-26T03:09:43Z</time>
      </trkpt>
      <trkpt lat="44.78175" lon="5.85217">
        <ele>1985.6</ele>
        <time>2009-07-26T03:10:13Z</time>
      </trkpt>
      <trkpt lat="44.78186" lon="5.85186">
        <ele>1990</ele>
        <time>2009-07-26T03:10:55Z</time>
      </trkpt>
      <trkpt lat="44.78216" lon="5.85167">
        <ele>1993.6</ele>
        <time>2009-07-26T03:11:37Z</time>
      </trkpt>
      <trkpt lat="44.78222" lon="5.8513">
        <ele>1992.4</ele>
        <time>2009-07-26T03:12:02Z</time>
      </trkpt>
      <trkpt lat="44.78223" lon="5.85116">
        <ele>1992.4</ele>
        <time>2009-07-26T03:12:36Z</time>
      </trkpt>
      <trkpt lat="44.78219" lon="5.85073">
        <ele>1994.6</ele>
        <time>2009-07-26T03:13:06Z</time>
      </trkpt>
      <trkpt lat="44.7821" lon="5.85025">
        <ele>1996</ele>
        <time>2009-07-26T03:13:45Z</time>
      </trkpt>
      <trkpt lat="44.78194" lon="5.84971">
        <ele>1996.8</ele>
        <time>2009-07-26T03:14:32Z</time>
      </trkpt>
      <trkpt lat="44.78168" lon="5.84907">
        <ele>1996.6</ele>
        <time>2009-07-26T03:15:21Z</time>
      </trkpt>
      <trkpt lat="44.78148" lon="5.84847">
        <ele>1999.3</ele>
        <time>2009-07-26T03:16:11Z</time>
      </trkpt>
      <trkpt lat="44.78164" lon="5.84805">
        <ele>2003.5</ele>
        <time>2009-07-26T03:16:43Z</time>
      </trkpt>
      <trkpt lat="44.78159" lon="5.84773">
        <ele>2004</ele>
        <time>2009-07-26T03:17:08Z</time>
      </trkpt>
      <trkpt lat="44.78164" lon="5.84744">
        <ele>2005.6</ele>
        <time>2009-07-26T03:17:46Z</time>
      </trkpt>
      <trkpt lat="44.7814" lon="5.84744">
        <ele>2005.8</ele>
        <time>2009-07-26T03:18:23Z</time>
      </trkpt>
      <trkpt lat="44.78118" lon="5.84747">
        <ele>2013.9</ele>
        <time>2009-07-26T03:18:59Z</time>
      </trkpt>
      <trkpt lat="44.78099" lon="5.84764">
        <ele>2018.6</ele>
        <time>2009-07-26T03:19:38Z</time>
      </trkpt>
      <trkpt lat="44.78075" lon="5.84762">
        <ele>2023.5</ele>
        <time>2009-07-26T03:20:12Z</time>
      </trkpt>
      <trkpt lat="44.78042" lon="5.84729">
        <ele>2029.6</ele>
        <time>2009-07-26T03:21:00Z</time>
      </trkpt>
      <trkpt lat="44.7802" lon="5.84706">
        <ele>2035.2</ele>
        <time>2009-07-26T03:21:43Z</time>
      </trkpt>
      <trkpt lat="44.7801" lon="5.84685">
        <ele>2041.5</ele>
        <time>2009-07-26T03:22:23Z</time>
      </trkpt>
      <trkpt lat="44.78003" lon="5.84673">
        <ele>2046.3</ele>
        <time>2009-07-26T03:22:48Z</time>
      </trkpt>
      <trkpt lat="44.78004" lon="5.84645">
        <ele>2050.2</ele>
        <time>2009-07-26T03:23:27Z</time>
      </trkpt>
      <trkpt lat="44.78001" lon="5.84618">
        <ele>2054.9</ele>
        <time>2009-07-26T03:24:05Z</time>
      </trkpt>
      <trkpt lat="44.77994" lon="5.84618">
        <ele>2058.9</ele>
        <time>2009-07-26T03:24:42Z</time>
      </trkpt>
      <trkpt lat="44.77973" lon="5.84641">
        <ele>2066.5</ele>
        <time>2009-07-26T03:25:22Z</time>
      </trkpt>
      <trkpt lat="44.7796" lon="5.84648">
        <ele>2071.7</ele>
        <time>2009-07-26T03:25:58Z</time>
      </trkpt>
      <trkpt lat="44.77945" lon="5.84651">
        <ele>2079.8</ele>
        <time>2009-07-26T03:26:43Z</time>
      </trkpt>
      <trkpt lat="44.77933" lon="5.84662">
        <ele>2086.8</ele>
        <time>2009-07-26T03:27:19Z</time>
      </trkpt>
      <trkpt lat="44.77922" lon="5.84679">
        <ele>2093.4</ele>
        <time>2009-07-26T03:27:59Z</time>
      </trkpt>
      <trkpt lat="44.77913" lon="5.84696">
        <ele>2097.7</ele>
        <time>2009-07-26T03:28:41Z</time>
      </trkpt>
      <trkpt lat="44.77895" lon="5.84719">
        <ele>2100.5</ele>
        <time>2009-07-26T03:29:22Z</time>
      </trkpt>
      <trkpt lat="44.77878" lon="5.84726">
        <ele>2099</ele>
        <time>2009-07-26T03:30:00Z</time>
      </trkpt>
      <trkpt lat="44.77861" lon="5.84718">
        <ele>2103.9</ele>
        <time>2009-07-26T03:30:54Z</time>
      </trkpt>
      <trkpt lat="44.77869" lon="5.84701">
        <ele>2114</ele>
        <time>2009-07-26T03:31:28Z</time>
      </trkpt>
      <trkpt lat="44.77862" lon="5.84679">
        <ele>2123.8</ele>
        <time>2009-07-26T03:32:37Z</time>
      </trkpt>
      <trkpt lat="44.77851" lon="5.8467">
        <ele>2128.6</ele>
        <time>2009-07-26T03:33:04Z</time>
      </trkpt>
      <trkpt lat="44.77837" lon="5.8465">
        <ele>2140.5</ele>
        <time>2009-07-26T03:34:11Z</time>
      </trkpt>
      <trkpt lat="44.77832" lon="5.84645">
        <ele>2144.2</ele>
        <time>2009-07-26T03:34:56Z</time>
      </trkpt>
      <trkpt lat="44.77816" lon="5.84551">
        <ele>2193</ele>
        <time>2009-07-26T03:53:25Z</time>
      </trkpt>
      <trkpt lat="44.77804" lon="5.84535">
        <ele>2207.5</ele>
        <time>2009-07-26T03:54:36Z</time>
      </trkpt>
      <trkpt lat="44.77811" lon="5.84526">
        <ele>2209.1</ele>
        <time>2009-07-26T03:55:12Z</time>
      </trkpt>
      <trkpt lat="44.77805" lon="5.84489">
        <ele>2225.1</ele>
        <time>2009-07-26T03:56:58Z</time>
      </trkpt>
      <trkpt lat="44.77784" lon="5.84474">
        <ele>2239.2</ele>
        <time>2009-07-26T03:58:30Z</time>
      </trkpt>
      <trkpt lat="44.77771" lon="5.84464">
        <ele>2247.8</ele>
        <time>2009-07-26T04:00:00Z</time>
      </trkpt>
      <trkpt lat="44.7776" lon="5.84454">
        <ele>2254.3</ele>
        <time>2009-07-26T04:00:38Z</time>
      </trkpt>
      <trkpt lat="44.7775" lon="5.84451">
        <ele>2258.7</ele>
        <time>2009-07-26T04:01:07Z</time>
      </trkpt>
      <trkpt lat="44.77734" lon="5.84439">
        <ele>2265.9</ele>
        <time>2009-07-26T04:01:44Z</time>
      </trkpt>
      <trkpt lat="44.77707" lon="5.84419">
        <ele>2283.4</ele>
        <time>2009-07-26T04:02:42Z</time>
      </trkpt>
      <trkpt lat="44.77692" lon="5.84414">
        <ele>2291</ele>
        <time>2009-07-26T04:03:13Z</time>
      </trkpt>
      <trkpt lat="44.7767" lon="5.84417">
        <ele>2299.6</ele>
        <time>2009-07-26T04:04:00Z</time>
      </trkpt>
      <trkpt lat="44.77667" lon="5.84416">
        <ele>2302.3</ele>
        <time>2009-07-26T04:04:51Z</time>
      </trkpt>
      <trkpt lat="44.77664" lon="5.84435">
        <ele>2289.4</ele>
        <time>2009-07-26T04:06:05Z</time>
      </trkpt>
      <trkpt lat="44.77652" lon="5.84436">
        <ele>2293.2</ele>
        <time>2009-07-26T04:06:51Z</time>
      </trkpt>
      <trkpt lat="44.77651" lon="5.84432">
        <ele>2296.7</ele>
        <time>2009-07-26T04:07:47Z</time>
      </trkpt>
      <trkpt lat="44.77576" lon="5.84452">
        <ele>2316.2</ele>
        <time>2009-07-26T04:10:17Z</time>
      </trkpt>
      <trkpt lat="44.77592" lon="5.84444">
        <ele>2311.6</ele>
        <time>2009-07-26T04:10:32Z</time>
      </trkpt>
      <trkpt lat="44.77583" lon="5.84445">
        <ele>2315.9</ele>
        <time>2009-07-26T04:11:04Z</time>
      </trkpt>
      <trkpt lat="44.77547" lon="5.84446">
        <ele>2329.8</ele>
        <time>2009-07-26T04:12:49Z</time>
      </trkpt>
      <trkpt lat="44.77504" lon="5.8448">
        <ele>2315.6</ele>
        <time>2009-07-26T04:13:36Z</time>
      </trkpt>
      <trkpt lat="44.77503" lon="5.84449">
        <ele>2335.4</ele>
        <time>2009-07-26T04:14:12Z</time>
      </trkpt>
      <trkpt lat="44.77496" lon="5.8443">
        <ele>2348.5</ele>
        <time>2009-07-26T04:15:00Z</time>
      </trkpt>
      <trkpt lat="44.77479" lon="5.84434">
        <ele>2351</ele>
        <time>2009-07-26T04:15:33Z</time>
      </trkpt>
      <trkpt lat="44.77462" lon="5.84439">
        <ele>2352.7</ele>
        <time>2009-07-26T04:16:14Z</time>
      </trkpt>
      <trkpt lat="44.77455" lon="5.84436">
        <ele>2357.4</ele>
        <time>2009-07-26T04:16:45Z</time>
      </trkpt>
      <trkpt lat="44.77442" lon="5.84445">
        <ele>2357.2</ele>
        <time>2009-07-26T04:17:25Z</time>
      </trkpt>
      <trkpt lat="44.77419" lon="5.84471">
        <ele>2362.1</ele>
        <time>2009-07-26T04:19:00Z</time>
      </trkpt>
      <trkpt lat="44.77413" lon="5.84469">
        <ele>2368</ele>
        <time>2009-07-26T04:22:30Z</time>
      </trkpt>
      <trkpt lat="44.77412" lon="5.84471">
        <ele>2368.8</ele>
        <time>2009-07-26T04:23:02Z</time>
      </trkpt>
      <trkpt lat="44.77403" lon="5.84494">
        <ele>2378</ele>
        <time>2009-07-26T04:24:24Z</time>
      </trkpt>
      <trkpt lat="44.77397" lon="5.84503">
        <ele>2386.8</ele>
        <time>2009-07-26T04:25:08Z</time>
      </trkpt>
      <trkpt lat="44.77368" lon="5.84451">
        <ele>2418</ele>
        <time>2009-07-26T04:31:23Z</time>
      </trkpt>
      <trkpt lat="44.7733" lon="5.84412">
        <ele>2463</ele>
        <time>2009-07-26T04:44:04Z</time>
      </trkpt>
      <trkpt lat="44.77326" lon="5.84401">
        <ele>2467.3</ele>
        <time>2009-07-26T04:44:43Z</time>
      </trkpt>
      <trkpt lat="44.77334" lon="5.84378">
        <ele>2471.7</ele>
        <time>2009-07-26T04:45:15Z</time>
      </trkpt>
      <trkpt lat="44.77332" lon="5.84365">
        <ele>2476.5</ele>
        <time>2009-07-26T04:45:45Z</time>
      </trkpt>
      <trkpt lat="44.77333" lon="5.84352">
        <ele>2480.9</ele>
        <time>2009-07-26T04:46:09Z</time>
      </trkpt>
      <trkpt lat="44.77331" lon="5.84338">
        <ele>2484.8</ele>
        <time>2009-07-26T04:46:42Z</time>
      </trkpt>
      <trkpt lat="44.77342" lon="5.84324">
        <ele>2489.1</ele>
        <time>2009-07-26T04:48:39Z</time>
      </trkpt>
      <trkpt lat="44.77348" lon="5.84311">
        <ele>2493.3</ele>
        <time>2009-07-26T04:49:10Z</time>
      </trkpt>
      <trkpt lat="44.77351" lon="5.843">
        <ele>2497.3</ele>
        <time>2009-07-26T04:49:30Z</time>
      </trkpt>
      <trkpt lat="44.7735" lon="5.84288">
        <ele>2501.4</ele>
        <time>2009-07-26T04:49:51Z</time>
      </trkpt>
      <trkpt lat="44.7735" lon="5.84284">
        <ele>2503.1</ele>
        <time>2009-07-26T04:50:34Z</time>
      </trkpt>
      <trkpt lat="44.7735" lon="5.84267">
        <ele>2509.3</ele>
        <time>2009-07-26T04:54:14Z</time>
      </trkpt>
      <trkpt lat="44.7735" lon="5.8425">
        <ele>2515.8</ele>
        <time>2009-07-26T04:54:43Z</time>
      </trkpt>
      <trkpt lat="44.77354" lon="5.84229">
        <ele>2524.5</ele>
        <time>2009-07-26T04:55:23Z</time>
      </trkpt>
      <trkpt lat="44.77364" lon="5.84221">
        <ele>2531.2</ele>
        <time>2009-07-26T04:56:22Z</time>
      </trkpt>
      <trkpt lat="44.77362" lon="5.84204">
        <ele>2536.8</ele>
        <time>2009-07-26T04:57:10Z</time>
      </trkpt>
      <trkpt lat="44.77378" lon="5.84164">
        <ele>2560.4</ele>
        <time>2009-07-26T04:59:21Z</time>
      </trkpt>
      <trkpt lat="44.7737" lon="5.84131">
        <ele>2573.5</ele>
        <time>2009-07-26T05:01:07Z</time>
      </trkpt>
      <trkpt lat="44.77364" lon="5.84116">
        <ele>2580.8</ele>
        <time>2009-07-26T05:01:42Z</time>
      </trkpt>
      <trkpt lat="44.77356" lon="5.84101">
        <ele>2587.2</ele>
        <time>2009-07-26T05:02:18Z</time>
      </trkpt>
      <trkpt lat="44.77353" lon="5.84098">
        <ele>2587.3</ele>
        <time>2009-07-26T05:03:06Z</time>
      </trkpt>
      <trkpt lat="44.77334" lon="5.84072">
        <ele>2592</ele>
        <time>2009-07-26T05:03:43Z</time>
      </trkpt>
      <trkpt lat="44.77316" lon="5.84053">
        <ele>2587.4</ele>
        <time>2009-07-26T05:04:25Z</time>
      </trkpt>
      <trkpt lat="44.77313" lon="5.84052">
        <ele>2585.3</ele>
        <time>2009-07-26T05:05:22Z</time>
      </trkpt>
      <trkpt lat="44.773" lon="5.84039">
        <ele>2573.8</ele>
        <time>2009-07-26T05:06:44Z</time>
      </trkpt>
      <trkpt lat="44.77328" lon="5.84011">
        <ele>2622.5</ele>
        <time>2009-07-26T05:11:56Z</time>
      </trkpt>
      <trkpt lat="44.77341" lon="5.83949">
        <ele>2657.4</ele>
        <time>2009-07-26T05:16:37Z</time>
      </trkpt>
      <trkpt lat="44.77349" lon="5.83916">
        <ele>2672.8</ele>
        <time>2009-07-26T05:19:44Z</time>
      </trkpt>
      <trkpt lat="44.77336" lon="5.83895">
        <ele>2664.6</ele>
        <time>2009-07-26T05:20:27Z</time>
      </trkpt>
      <trkpt lat="44.77328" lon="5.83892">
        <ele>2658.6</ele>
        <time>2009-07-26T05:21:02Z</time>
      </trkpt>
      <trkpt lat="44.77323" lon="5.83869">
        <ele>2654.3</ele>
        <time>2009-07-26T05:22:05Z</time>
      </trkpt>
      <trkpt lat="44.77324" lon="5.83833">
        <ele>2657.7</ele>
        <time>2009-07-26T05:25:43Z</time>
      </trkpt>
      <trkpt lat="44.77326" lon="5.83795">
        <ele>2657.4</ele>
        <time>2009-07-26T05:26:27Z</time>
      </trkpt>
      <trkpt lat="44.7733" lon="5.83779">
        <ele>2660.6</ele>
        <time>2009-07-26T05:26:59Z</time>
      </trkpt>
      <trkpt lat="44.77372" lon="5.83753">
        <ele>2687.8</ele>
        <time>2009-07-26T05:31:51Z</time>
      </trkpt>
      <trkpt lat="44.77377" lon="5.83797">
        <ele>2700.3</ele>
        <time>2009-07-26T05:34:22Z</time>
      </trkpt>
      <trkpt lat="44.77376" lon="5.83808">
        <ele>2701.1</ele>
        <time>2009-07-26T05:34:45Z</time>
      </trkpt>
      <trkpt lat="44.77383" lon="5.83819">
        <ele>2707.1</ele>
        <time>2009-07-26T05:35:28Z</time>
      </trkpt>
      <trkpt lat="44.77388" lon="5.83829">
        <ele>2712.6</ele>
        <time>2009-07-26T05:35:57Z</time>
      </trkpt>
      <trkpt lat="44.77398" lon="5.83855">
        <ele>2721.7</ele>
        <time>2009-07-26T05:37:08Z</time>
      </trkpt>
      <trkpt lat="44.77403" lon="5.83876">
        <ele>2727.1</ele>
        <time>2009-07-26T05:37:48Z</time>
      </trkpt>
      <trkpt lat="44.77407" lon="5.8389">
        <ele>2731.5</ele>
        <time>2009-07-26T05:38:24Z</time>
      </trkpt>
      <trkpt lat="44.77414" lon="5.83881">
        <ele>2736.2</ele>
        <time>2009-07-26T05:39:18Z</time>
      </trkpt>
      <trkpt lat="44.77422" lon="5.83894">
        <ele>2742.2</ele>
        <time>2009-07-26T05:40:04Z</time>
      </trkpt>
      <trkpt lat="44.7743" lon="5.83892">
        <ele>2746.8</ele>
        <time>2009-07-26T05:40:28Z</time>
      </trkpt>
      <trkpt lat="44.77442" lon="5.83891">
        <ele>2753.6</ele>
        <time>2009-07-26T05:41:18Z</time>
      </trkpt>
      <trkpt lat="44.77447" lon="5.83909">
        <ele>2758.7</ele>
        <time>2009-07-26T05:41:46Z</time>
      </trkpt>
      <trkpt lat="44.77453" lon="5.83914">
        <ele>2761.5</ele>
        <time>2009-07-26T05:42:11Z</time>
      </trkpt>
      <trkpt lat="44.77468" lon="5.83917">
        <ele>2767.4</ele>
        <time>2009-07-26T05:42:54Z</time>
      </trkpt>
      <trkpt lat="44.77479" lon="5.8392">
        <ele>2769</ele>
        <time>2009-07-26T05:43:21Z</time>
      </trkpt>
      <trkpt lat="44.77482" lon="5.8392">
        <ele>2768.8</ele>
        <time>2009-07-26T05:43:39Z</time>
      </trkpt>
      <trkpt lat="44.77501" lon="5.83924">
        <ele>2768.7</ele>
        <time>2009-07-26T05:44:19Z</time>
      </trkpt>
      <trkpt lat="44.77517" lon="5.83942">
        <ele>2768.9</ele>
        <time>2009-07-26T05:44:54Z</time>
      </trkpt>
      <trkpt lat="44.7753" lon="5.83944">
        <ele>2765.2</ele>
        <time>2009-07-26T05:45:29Z</time>
      </trkpt>
      <trkpt lat="44.77538" lon="5.83941">
        <ele>2754.9</ele>
        <time>2009-07-26T05:45:49Z</time>
      </trkpt>
      <trkpt lat="44.77538" lon="5.8394">
        <ele>2754.2</ele>
        <time>2009-07-26T05:46:33Z</time>
      </trkpt>
      <trkpt lat="44.77538" lon="5.83939">
        <ele>2753.4</ele>
        <time>2009-07-26T05:46:53Z</time>
      </trkpt>
      <trkpt lat="44.77529" lon="5.83943">
        <ele>2765.2</ele>
        <time>2009-07-26T06:05:51Z</time>
      </trkpt>
      <trkpt lat="44.77526" lon="5.83938">
        <ele>2763.8</ele>
        <time>2009-07-26T06:06:16Z</time>
      </trkpt>
      <trkpt lat="44.77539" lon="5.83938">
        <ele>2751.9</ele>
        <time>2009-07-26T06:06:55Z</time>
      </trkpt>
      <trkpt lat="44.77507" lon="5.83944">
        <ele>2772.9</ele>
        <time>2009-07-26T06:37:08Z</time>
      </trkpt>
      <trkpt lat="44.7747" lon="5.8392">
        <ele>2768.5</ele>
        <time>2009-07-26T06:37:37Z</time>
      </trkpt>
      <trkpt lat="44.77455" lon="5.83919">
        <ele>2762.8</ele>
        <time>2009-07-26T06:37:51Z</time>
      </trkpt>
      <trkpt lat="44.77447" lon="5.83905">
        <ele>2758</ele>
        <time>2009-07-26T06:38:03Z</time>
      </trkpt>
      <trkpt lat="44.77432" lon="5.83891">
        <ele>2748.2</ele>
        <time>2009-07-26T06:38:31Z</time>
      </trkpt>
      <trkpt lat="44.77429" lon="5.83892">
        <ele>2746.2</ele>
        <time>2009-07-26T06:38:38Z</time>
      </trkpt>
      <trkpt lat="44.77424" lon="5.83889">
        <ele>2743.5</ele>
        <time>2009-07-26T06:39:00Z</time>
      </trkpt>
      <trkpt lat="44.77414" lon="5.83887">
        <ele>2736.8</ele>
        <time>2009-07-26T06:40:15Z</time>
      </trkpt>
      <trkpt lat="44.7741" lon="5.83893">
        <ele>2734.1</ele>
        <time>2009-07-26T06:40:26Z</time>
      </trkpt>
      <trkpt lat="44.77401" lon="5.83881">
        <ele>2726.3</ele>
        <time>2009-07-26T06:40:51Z</time>
      </trkpt>
      <trkpt lat="44.77394" lon="5.8385">
        <ele>2719</ele>
        <time>2009-07-26T06:41:20Z</time>
      </trkpt>
      <trkpt lat="44.77385" lon="5.8383">
        <ele>2710.2</ele>
        <time>2009-07-26T06:41:45Z</time>
      </trkpt>
      <trkpt lat="44.77378" lon="5.83817">
        <ele>2703.3</ele>
        <time>2009-07-26T06:42:10Z</time>
      </trkpt>
      <trkpt lat="44.77375" lon="5.83807">
        <ele>2699.8</ele>
        <time>2009-07-26T06:42:31Z</time>
      </trkpt>
      <trkpt lat="44.77378" lon="5.83792">
        <ele>2700.2</ele>
        <time>2009-07-26T06:42:55Z</time>
      </trkpt>
      <trkpt lat="44.77373" lon="5.8378">
        <ele>2694.9</ele>
        <time>2009-07-26T06:43:10Z</time>
      </trkpt>
      <trkpt lat="44.77376" lon="5.83773">
        <ele>2695.2</ele>
        <time>2009-07-26T06:43:26Z</time>
      </trkpt>
      <trkpt lat="44.77374" lon="5.83757">
        <ele>2690.2</ele>
        <time>2009-07-26T06:45:25Z</time>
      </trkpt>
      <trkpt lat="44.77375" lon="5.83747">
        <ele>2687.5</ele>
        <time>2009-07-26T06:45:52Z</time>
      </trkpt>
      <trkpt lat="44.77358" lon="5.83746">
        <ele>2676.9</ele>
        <time>2009-07-26T06:46:48Z</time>
      </trkpt>
      <trkpt lat="44.77343" lon="5.83748">
        <ele>2666.3</ele>
        <time>2009-07-26T06:47:45Z</time>
      </trkpt>
      <trkpt lat="44.77315" lon="5.83791">
        <ele>2646.1</ele>
        <time>2009-07-26T06:52:04Z</time>
      </trkpt>
      <trkpt lat="44.7731" lon="5.83828">
        <ele>2641.6</ele>
        <time>2009-07-26T06:52:46Z</time>
      </trkpt>
      <trkpt lat="44.77309" lon="5.83848">
        <ele>2638.4</ele>
        <time>2009-07-26T06:53:25Z</time>
      </trkpt>
      <trkpt lat="44.77312" lon="5.83818">
        <ele>2644</ele>
        <time>2009-07-26T06:57:38Z</time>
      </trkpt>
      <trkpt lat="44.77317" lon="5.83803">
        <ele>2648.9</ele>
        <time>2009-07-26T06:57:58Z</time>
      </trkpt>
      <trkpt lat="44.77324" lon="5.8378">
        <ele>2653.9</ele>
        <time>2009-07-26T06:58:27Z</time>
      </trkpt>
      <trkpt lat="44.77327" lon="5.83803">
        <ele>2659.7</ele>
        <time>2009-07-26T07:05:55Z</time>
      </trkpt>
      <trkpt lat="44.77321" lon="5.83849">
        <ele>2653.7</ele>
        <time>2009-07-26T07:06:37Z</time>
      </trkpt>
      <trkpt lat="44.77323" lon="5.8388">
        <ele>2654.3</ele>
        <time>2009-07-26T07:07:12Z</time>
      </trkpt>
      <trkpt lat="44.77327" lon="5.83892">
        <ele>2657.5</ele>
        <time>2009-07-26T07:07:45Z</time>
      </trkpt>
      <trkpt lat="44.77356" lon="5.83901">
        <ele>2684.1</ele>
        <time>2009-07-26T07:08:54Z</time>
      </trkpt>
      <trkpt lat="44.77339" lon="5.8393">
        <ele>2658.6</ele>
        <time>2009-07-26T07:09:50Z</time>
      </trkpt>
      <trkpt lat="44.77325" lon="5.8392">
        <ele>2646.9</ele>
        <time>2009-07-26T07:10:01Z</time>
      </trkpt>
      <trkpt lat="44.77325" lon="5.83934">
        <ele>2643.2</ele>
        <time>2009-07-26T07:10:12Z</time>
      </trkpt>
      <trkpt lat="44.77327" lon="5.83972">
        <ele>2636.3</ele>
        <time>2009-07-26T07:10:54Z</time>
      </trkpt>
      <trkpt lat="44.77325" lon="5.84016">
        <ele>2615.1</ele>
        <time>2009-07-26T07:15:54Z</time>
      </trkpt>
      <trkpt lat="44.77314" lon="5.8404">
        <ele>2591.7</ele>
        <time>2009-07-26T07:17:52Z</time>
      </trkpt>
      <trkpt lat="44.77319" lon="5.8406">
        <ele>2586.3</ele>
        <time>2009-07-26T07:21:43Z</time>
      </trkpt>
      <trkpt lat="44.77326" lon="5.84066">
        <ele>2589.4</ele>
        <time>2009-07-26T07:22:34Z</time>
      </trkpt>
      <trkpt lat="44.77332" lon="5.8408">
        <ele>2584.4</ele>
        <time>2009-07-26T07:23:04Z</time>
      </trkpt>
      <trkpt lat="44.77355" lon="5.84104">
        <ele>2584.3</ele>
        <time>2009-07-26T07:24:46Z</time>
      </trkpt>
      <trkpt lat="44.77366" lon="5.84136">
        <ele>2568.5</ele>
        <time>2009-07-26T07:25:26Z</time>
      </trkpt>
      <trkpt lat="44.77375" lon="5.84151">
        <ele>2564.4</ele>
        <time>2009-07-26T07:25:58Z</time>
      </trkpt>
      <trkpt lat="44.77379" lon="5.84181">
        <ele>2553.4</ele>
        <time>2009-07-26T07:26:35Z</time>
      </trkpt>
      <trkpt lat="44.7738" lon="5.84195">
        <ele>2547.3</ele>
        <time>2009-07-26T07:27:14Z</time>
      </trkpt>
      <trkpt lat="44.77365" lon="5.8422">
        <ele>2532.3</ele>
        <time>2009-07-26T07:28:52Z</time>
      </trkpt>
      <trkpt lat="44.77363" lon="5.84226">
        <ele>2529</ele>
        <time>2009-07-26T07:29:24Z</time>
      </trkpt>
      <trkpt lat="44.77355" lon="5.84228">
        <ele>2525.1</ele>
        <time>2009-07-26T07:30:20Z</time>
      </trkpt>
      <trkpt lat="44.77349" lon="5.84238">
        <ele>2519.2</ele>
        <time>2009-07-26T07:33:10Z</time>
      </trkpt>
      <trkpt lat="44.77348" lon="5.84259">
        <ele>2511.4</ele>
        <time>2009-07-26T07:33:36Z</time>
      </trkpt>
      <trkpt lat="44.7735" lon="5.8428">
        <ele>2504.7</ele>
        <time>2009-07-26T07:34:10Z</time>
      </trkpt>
      <trkpt lat="44.77346" lon="5.84297">
        <ele>2497.9</ele>
        <time>2009-07-26T07:34:33Z</time>
      </trkpt>
      <trkpt lat="44.77343" lon="5.84307">
        <ele>2494.3</ele>
        <time>2009-07-26T07:35:03Z</time>
      </trkpt>
      <trkpt lat="44.77337" lon="5.84326">
        <ele>2488.7</ele>
        <time>2009-07-26T07:35:31Z</time>
      </trkpt>
      <trkpt lat="44.77325" lon="5.84348">
        <ele>2480.6</ele>
        <time>2009-07-26T07:36:02Z</time>
      </trkpt>
      <trkpt lat="44.7732" lon="5.84355">
        <ele>2478.6</ele>
        <time>2009-07-26T07:36:35Z</time>
      </trkpt>
      <trkpt lat="44.7732" lon="5.84376">
        <ele>2474.6</ele>
        <time>2009-07-26T07:37:51Z</time>
      </trkpt>
      <trkpt lat="44.77328" lon="5.8438">
        <ele>2472.2</ele>
        <time>2009-07-26T07:38:17Z</time>
      </trkpt>
      <trkpt lat="44.77324" lon="5.84392">
        <ele>2470.1</ele>
        <time>2009-07-26T07:38:57Z</time>
      </trkpt>
      <trkpt lat="44.77329" lon="5.84419">
        <ele>2462.1</ele>
        <time>2009-07-26T07:39:28Z</time>
      </trkpt>
      <trkpt lat="44.77331" lon="5.84435">
        <ele>2458.9</ele>
        <time>2009-07-26T07:39:55Z</time>
      </trkpt>
      <trkpt lat="44.77354" lon="5.8444">
        <ele>2434.7</ele>
        <time>2009-07-26T07:48:11Z</time>
      </trkpt>
      <trkpt lat="44.77367" lon="5.8448">
        <ele>2419.2</ele>
        <time>2009-07-26T07:50:40Z</time>
      </trkpt>
      <trkpt lat="44.77397" lon="5.845">
        <ele>2385.5</ele>
        <time>2009-07-26T07:53:18Z</time>
      </trkpt>
      <trkpt lat="44.77422" lon="5.84503">
        <ele>2356.8</ele>
        <time>2009-07-26T07:54:19Z</time>
      </trkpt>
      <trkpt lat="44.77419" lon="5.84508">
        <ele>2360.1</ele>
        <time>2009-07-26T07:54:55Z</time>
      </trkpt>
      <trkpt lat="44.77424" lon="5.84491">
        <ele>2356.1</ele>
        <time>2009-07-26T07:56:33Z</time>
      </trkpt>
      <trkpt lat="44.77441" lon="5.84471">
        <ele>2349.7</ele>
        <time>2009-07-26T07:57:10Z</time>
      </trkpt>
      <trkpt lat="44.77441" lon="5.84449">
        <ele>2356.7</ele>
        <time>2009-07-26T07:58:01Z</time>
      </trkpt>
      <trkpt lat="44.77472" lon="5.84446">
        <ele>2345.1</ele>
        <time>2009-07-26T07:58:49Z</time>
      </trkpt>
      <trkpt lat="44.77512" lon="5.8444">
        <ele>2339</ele>
        <time>2009-07-26T07:59:30Z</time>
      </trkpt>
      <trkpt lat="44.77535" lon="5.84458">
        <ele>2323.8</ele>
        <time>2009-07-26T08:00:17Z</time>
      </trkpt>
      <trkpt lat="44.77557" lon="5.8448">
        <ele>2307.8</ele>
        <time>2009-07-26T08:02:16Z</time>
      </trkpt>
      <trkpt lat="44.77576" lon="5.84491">
        <ele>2296.9</ele>
        <time>2009-07-26T08:03:02Z</time>
      </trkpt>
      <trkpt lat="44.77584" lon="5.84498">
        <ele>2291</ele>
        <time>2009-07-26T08:03:50Z</time>
      </trkpt>
      <trkpt lat="44.77597" lon="5.84487">
        <ele>2286.5</ele>
        <time>2009-07-26T08:04:23Z</time>
      </trkpt>
      <trkpt lat="44.77614" lon="5.84467">
        <ele>2285.3</ele>
        <time>2009-07-26T08:05:07Z</time>
      </trkpt>
      <trkpt lat="44.77641" lon="5.84458">
        <ele>2280.5</ele>
        <time>2009-07-26T08:06:01Z</time>
      </trkpt>
      <trkpt lat="44.77651" lon="5.84444">
        <ele>2287.3</ele>
        <time>2009-07-26T08:08:43Z</time>
      </trkpt>
      <trkpt lat="44.7766" lon="5.84442">
        <ele>2285.3</ele>
        <time>2009-07-26T08:09:11Z</time>
      </trkpt>
      <trkpt lat="44.77678" lon="5.84438">
        <ele>2279.5</ele>
        <time>2009-07-26T08:09:43Z</time>
      </trkpt>
      <trkpt lat="44.77693" lon="5.84434">
        <ele>2274.6</ele>
        <time>2009-07-26T08:10:38Z</time>
      </trkpt>
      <trkpt lat="44.77714" lon="5.84437">
        <ele>2268.7</ele>
        <time>2009-07-26T08:12:26Z</time>
      </trkpt>
      <trkpt lat="44.77725" lon="5.84442">
        <ele>2263.8</ele>
        <time>2009-07-26T08:12:54Z</time>
      </trkpt>
      <trkpt lat="44.77739" lon="5.84457">
        <ele>2254.1</ele>
        <time>2009-07-26T08:13:25Z</time>
      </trkpt>
      <trkpt lat="44.77753" lon="5.84456">
        <ele>2254.9</ele>
        <time>2009-07-26T08:14:09Z</time>
      </trkpt>
      <trkpt lat="44.77765" lon="5.84464">
        <ele>2248.7</ele>
        <time>2009-07-26T08:14:34Z</time>
      </trkpt>
      <trkpt lat="44.77768" lon="5.84476">
        <ele>2241.7</ele>
        <time>2009-07-26T08:15:06Z</time>
      </trkpt>
      <trkpt lat="44.77785" lon="5.84489">
        <ele>2231.9</ele>
        <time>2009-07-26T08:16:23Z</time>
      </trkpt>
      <trkpt lat="44.77795" lon="5.845">
        <ele>2225</ele>
        <time>2009-07-26T08:16:57Z</time>
      </trkpt>
      <trkpt lat="44.77803" lon="5.84505">
        <ele>2221.4</ele>
        <time>2009-07-26T08:29:35Z</time>
      </trkpt>
      <trkpt lat="44.77807" lon="5.8451">
        <ele>2217.8</ele>
        <time>2009-07-26T08:29:56Z</time>
      </trkpt>
      <trkpt lat="44.7781" lon="5.84532">
        <ele>2206.7</ele>
        <time>2009-07-26T08:30:45Z</time>
      </trkpt>
      <trkpt lat="44.77782" lon="5.84542">
        <ele>2202.6</ele>
        <time>2009-07-26T08:31:35Z</time>
      </trkpt>
      <trkpt lat="44.77789" lon="5.8456">
        <ele>2192.2</ele>
        <time>2009-07-26T08:31:56Z</time>
      </trkpt>
      <trkpt lat="44.77796" lon="5.8457">
        <ele>2186.1</ele>
        <time>2009-07-26T08:32:16Z</time>
      </trkpt>
      <trkpt lat="44.77798" lon="5.84582">
        <ele>2179.3</ele>
        <time>2009-07-26T08:32:31Z</time>
      </trkpt>
      <trkpt lat="44.7782" lon="5.84603">
        <ele>2166.3</ele>
        <time>2009-07-26T08:33:37Z</time>
      </trkpt>
      <trkpt lat="44.77824" lon="5.84598">
        <ele>2168</ele>
        <time>2009-07-26T08:34:10Z</time>
      </trkpt>
      <trkpt lat="44.77823" lon="5.84617">
        <ele>2159</ele>
        <time>2009-07-26T08:34:55Z</time>
      </trkpt>
      <trkpt lat="44.77824" lon="5.84632">
        <ele>2151</ele>
        <time>2009-07-26T08:35:17Z</time>
      </trkpt>
      <trkpt lat="44.77834" lon="5.84638">
        <ele>2147.4</ele>
        <time>2009-07-26T08:35:32Z</time>
      </trkpt>
      <trkpt lat="44.77839" lon="5.84652">
        <ele>2139.3</ele>
        <time>2009-07-26T08:35:57Z</time>
      </trkpt>
      <trkpt lat="44.7785" lon="5.8467">
        <ele>2128.5</ele>
        <time>2009-07-26T08:36:26Z</time>
      </trkpt>
      <trkpt lat="44.7785" lon="5.8467">
        <ele>2128.7</ele>
        <time>2009-07-26T08:37:01Z</time>
      </trkpt>
      <trkpt lat="44.77853" lon="5.84682">
        <ele>2123.8</ele>
        <time>2009-07-26T08:37:25Z</time>
      </trkpt>
      <trkpt lat="44.77866" lon="5.84685">
        <ele>2120.5</ele>
        <time>2009-07-26T08:37:51Z</time>
      </trkpt>
      <trkpt lat="44.77891" lon="5.84662">
        <ele>2115.7</ele>
        <time>2009-07-26T08:38:27Z</time>
      </trkpt>
      <trkpt lat="44.77909" lon="5.84642">
        <ele>2105.2</ele>
        <time>2009-07-26T08:39:06Z</time>
      </trkpt>
      <trkpt lat="44.77915" lon="5.84641">
        <ele>2100.9</ele>
        <time>2009-07-26T08:39:28Z</time>
      </trkpt>
      <trkpt lat="44.77923" lon="5.8464">
        <ele>2096</ele>
        <time>2009-07-26T08:39:50Z</time>
      </trkpt>
      <trkpt lat="44.77928" lon="5.84647">
        <ele>2092.1</ele>
        <time>2009-07-26T08:40:21Z</time>
      </trkpt>
      <trkpt lat="44.77943" lon="5.84643">
        <ele>2082.6</ele>
        <time>2009-07-26T08:40:49Z</time>
      </trkpt>
      <trkpt lat="44.7795" lon="5.84646">
        <ele>2077.8</ele>
        <time>2009-07-26T08:41:15Z</time>
      </trkpt>
      <trkpt lat="44.77979" lon="5.84631">
        <ele>2064.7</ele>
        <time>2009-07-26T08:41:58Z</time>
      </trkpt>
      <trkpt lat="44.77999" lon="5.84604">
        <ele>2056.9</ele>
        <time>2009-07-26T08:42:38Z</time>
      </trkpt>
      <trkpt lat="44.78003" lon="5.84628">
        <ele>2053.1</ele>
        <time>2009-07-26T08:43:03Z</time>
      </trkpt>
      <trkpt lat="44.78006" lon="5.84682">
        <ele>2043.3</ele>
        <time>2009-07-26T08:43:45Z</time>
      </trkpt>
      <trkpt lat="44.78019" lon="5.84708">
        <ele>2035.2</ele>
        <time>2009-07-26T08:44:18Z</time>
      </trkpt>
      <trkpt lat="44.78023" lon="5.84717">
        <ele>2033</ele>
        <time>2009-07-26T08:44:47Z</time>
      </trkpt>
      <trkpt lat="44.78038" lon="5.84728">
        <ele>2030.1</ele>
        <time>2009-07-26T08:51:35Z</time>
      </trkpt>
      <trkpt lat="44.78093" lon="5.84772">
        <ele>2019.4</ele>
        <time>2009-07-26T08:52:21Z</time>
      </trkpt>
      <trkpt lat="44.78114" lon="5.84755">
        <ele>2015.2</ele>
        <time>2009-07-26T08:52:46Z</time>
      </trkpt>
      <trkpt lat="44.78133" lon="5.84743">
        <ele>2007.9</ele>
        <time>2009-07-26T08:53:15Z</time>
      </trkpt>
      <trkpt lat="44.7815" lon="5.84741">
        <ele>2005.5</ele>
        <time>2009-07-26T08:53:43Z</time>
      </trkpt>
      <trkpt lat="44.78163" lon="5.84767">
        <ele>2005</ele>
        <time>2009-07-26T08:54:38Z</time>
      </trkpt>
      <trkpt lat="44.78161" lon="5.84817">
        <ele>2003.4</ele>
        <time>2009-07-26T08:55:07Z</time>
      </trkpt>
      <trkpt lat="44.78156" lon="5.84873">
        <ele>1998.8</ele>
        <time>2009-07-26T08:55:38Z</time>
      </trkpt>
      <trkpt lat="44.78181" lon="5.84937">
        <ele>1995.7</ele>
        <time>2009-07-26T08:56:20Z</time>
      </trkpt>
      <trkpt lat="44.78204" lon="5.85006">
        <ele>1995.8</ele>
        <time>2009-07-26T08:57:02Z</time>
      </trkpt>
      <trkpt lat="44.78218" lon="5.85084">
        <ele>1992.5</ele>
        <time>2009-07-26T08:57:49Z</time>
      </trkpt>
      <trkpt lat="44.78211" lon="5.85168">
        <ele>1992.8</ele>
        <time>2009-07-26T08:58:38Z</time>
      </trkpt>
      <trkpt lat="44.78195" lon="5.85175">
        <ele>1989.7</ele>
        <time>2009-07-26T08:58:53Z</time>
      </trkpt>
      <trkpt lat="44.7819" lon="5.85182">
        <ele>1989.9</ele>
        <time>2009-07-26T08:59:05Z</time>
      </trkpt>
      <trkpt lat="44.78172" lon="5.8522">
        <ele>1984.3</ele>
        <time>2009-07-26T09:00:44Z</time>
      </trkpt>
      <trkpt lat="44.78153" lon="5.85248">
        <ele>1974.5</ele>
        <time>2009-07-26T09:01:24Z</time>
      </trkpt>
      <trkpt lat="44.78116" lon="5.85275">
        <ele>1970.4</ele>
        <time>2009-07-26T09:01:56Z</time>
      </trkpt>
      <trkpt lat="44.7807" lon="5.85313">
        <ele>1964.7</ele>
        <time>2009-07-26T09:02:36Z</time>
      </trkpt>
      <trkpt lat="44.7803" lon="5.85339">
        <ele>1959.4</ele>
        <time>2009-07-26T09:03:11Z</time>
      </trkpt>
      <trkpt lat="44.77982" lon="5.85376">
        <ele>1952.2</ele>
        <time>2009-07-26T09:03:56Z</time>
      </trkpt>
      <trkpt lat="44.77963" lon="5.85433">
        <ele>1945</ele>
        <time>2009-07-26T09:04:33Z</time>
      </trkpt>
      <trkpt lat="44.77967" lon="5.85496">
        <ele>1940</ele>
        <time>2009-07-26T09:05:09Z</time>
      </trkpt>
      <trkpt lat="44.77972" lon="5.85517">
        <ele>1934.2</ele>
        <time>2009-07-26T09:05:37Z</time>
      </trkpt>
      <trkpt lat="44.77929" lon="5.85542">
        <ele>1930.2</ele>
        <time>2009-07-26T09:06:11Z</time>
      </trkpt>
      <trkpt lat="44.77903" lon="5.856">
        <ele>1919.9</ele>
        <time>2009-07-26T09:06:53Z</time>
      </trkpt>
      <trkpt lat="44.77873" lon="5.85628">
        <ele>1915.4</ele>
        <time>2009-07-26T09:07:34Z</time>
      </trkpt>
      <trkpt lat="44.77836" lon="5.85637">
        <ele>1912.5</ele>
        <time>2009-07-26T09:08:13Z</time>
      </trkpt>
      <trkpt lat="44.77819" lon="5.85672">
        <ele>1907.4</ele>
        <time>2009-07-26T09:08:49Z</time>
      </trkpt>
      <trkpt lat="44.77791" lon="5.85718">
        <ele>1901.6</ele>
        <time>2009-07-26T09:09:34Z</time>
      </trkpt>
      <trkpt lat="44.77777" lon="5.85768">
        <ele>1895</ele>
        <time>2009-07-26T09:10:15Z</time>
      </trkpt>
      <trkpt lat="44.77778" lon="5.85829">
        <ele>1890.3</ele>
        <time>2009-07-26T09:11:01Z</time>
      </trkpt>
      <trkpt lat="44.77775" lon="5.85872">
        <ele>1888.3</ele>
        <time>2009-07-26T09:11:36Z</time>
      </trkpt>
      <trkpt lat="44.77756" lon="5.85908">
        <ele>1888.6</ele>
        <time>2009-07-26T09:12:13Z</time>
      </trkpt>
      <trkpt lat="44.7774" lon="5.85931">
        <ele>1893.8</ele>
        <time>2009-07-26T09:12:51Z</time>
      </trkpt>
      <trkpt lat="44.77738" lon="5.85951">
        <ele>1892.5</ele>
        <time>2009-07-26T09:13:29Z</time>
      </trkpt>
      <trkpt lat="44.77735" lon="5.85977">
        <ele>1888.2</ele>
        <time>2009-07-26T09:14:06Z</time>
      </trkpt>
      <trkpt lat="44.77718" lon="5.85985">
        <ele>1889.7</ele>
        <time>2009-07-26T09:14:39Z</time>
      </trkpt>
      <trkpt lat="44.77704" lon="5.85991">
        <ele>1889.3</ele>
        <time>2009-07-26T09:15:13Z</time>
      </trkpt>
      <trkpt lat="44.777" lon="5.86009">
        <ele>1880.7</ele>
        <time>2009-07-26T09:15:38Z</time>
      </trkpt>
      <trkpt lat="44.77695" lon="5.86025">
        <ele>1874.2</ele>
        <time>2009-07-26T09:16:07Z</time>
      </trkpt>
      <trkpt lat="44.77685" lon="5.86066">
        <ele>1861.3</ele>
        <time>2009-07-26T09:16:50Z</time>
      </trkpt>
      <trkpt lat="44.77689" lon="5.86105">
        <ele>1848.2</ele>
        <time>2009-07-26T09:17:41Z</time>
      </trkpt>
      <trkpt lat="44.77692" lon="5.86138">
        <ele>1839.8</ele>
        <time>2009-07-26T09:18:16Z</time>
      </trkpt>
      <trkpt lat="44.77694" lon="5.86148">
        <ele>1837.1</ele>
        <time>2009-07-26T09:18:30Z</time>
      </trkpt>
      <trkpt lat="44.77693" lon="5.86173">
        <ele>1832</ele>
        <time>2009-07-26T09:19:00Z</time>
      </trkpt>
      <trkpt lat="44.77696" lon="5.86209">
        <ele>1824.6</ele>
        <time>2009-07-26T09:19:34Z</time>
      </trkpt>
      <trkpt lat="44.77698" lon="5.86243">
        <ele>1816.5</ele>
        <time>2009-07-26T09:20:05Z</time>
      </trkpt>
      <trkpt lat="44.77703" lon="5.86291">
        <ele>1807</ele>
        <time>2009-07-26T09:20:45Z</time>
      </trkpt>
      <trkpt lat="44.7771" lon="5.86365">
        <ele>1798.8</ele>
        <time>2009-07-26T09:21:36Z</time>
      </trkpt>
      <trkpt lat="44.77725" lon="5.86433">
        <ele>1792.4</ele>
        <time>2009-07-26T09:22:33Z</time>
      </trkpt>
      <trkpt lat="44.77739" lon="5.86489">
        <ele>1784.1</ele>
        <time>2009-07-26T09:23:20Z</time>
      </trkpt>
      <trkpt lat="44.77752" lon="5.86546">
        <ele>1776.1</ele>
        <time>2009-07-26T09:24:04Z</time>
      </trkpt>
      <trkpt lat="44.77748" lon="5.86599">
        <ele>1773.5</ele>
        <time>2009-07-26T09:24:42Z</time>
      </trkpt>
      <trkpt lat="44.77747" lon="5.86666">
        <ele>1768.4</ele>
        <time>2009-07-26T09:25:25Z</time>
      </trkpt>
      <trkpt lat="44.77762" lon="5.86743">
        <ele>1761.8</ele>
        <time>2009-07-26T09:26:13Z</time>
      </trkpt>
      <trkpt lat="44.77768" lon="5.86821">
        <ele>1756</ele>
        <time>2009-07-26T09:27:03Z</time>
      </trkpt>
      <trkpt lat="44.77781" lon="5.86879">
        <ele>1750.4</ele>
        <time>2009-07-26T09:27:42Z</time>
      </trkpt>
      <trkpt lat="44.77798" lon="5.86952">
        <ele>1739.2</ele>
        <time>2009-07-26T09:28:34Z</time>
      </trkpt>
      <trkpt lat="44.77806" lon="5.86979">
        <ele>1735.4</ele>
        <time>2009-07-26T09:29:11Z</time>
      </trkpt>
      <trkpt lat="44.77809" lon="5.86999">
        <ele>1733.2</ele>
        <time>2009-07-26T09:30:12Z</time>
      </trkpt>
      <trkpt lat="44.77821" lon="5.87033">
        <ele>1727.7</ele>
        <time>2009-07-26T09:30:42Z</time>
      </trkpt>
      <trkpt lat="44.7783" lon="5.87061">
        <ele>1724.4</ele>
        <time>2009-07-26T09:31:08Z</time>
      </trkpt>
      <trkpt lat="44.77854" lon="5.87121">
        <ele>1714.7</ele>
        <time>2009-07-26T09:31:53Z</time>
      </trkpt>
      <trkpt lat="44.77881" lon="5.87163">
        <ele>1707.6</ele>
        <time>2009-07-26T09:32:30Z</time>
      </trkpt>
      <trkpt lat="44.77912" lon="5.87218">
        <ele>1700.3</ele>
        <time>2009-07-26T09:33:15Z</time>
      </trkpt>
      <trkpt lat="44.77933" lon="5.87277">
        <ele>1695.5</ele>
        <time>2009-07-26T09:33:56Z</time>
      </trkpt>
      <trkpt lat="44.77966" lon="5.87324">
        <ele>1688.9</ele>
        <time>2009-07-26T09:34:40Z</time>
      </trkpt>
      <trkpt lat="44.77994" lon="5.87374">
        <ele>1684</ele>
        <time>2009-07-26T09:35:24Z</time>
      </trkpt>
      <trkpt lat="44.78012" lon="5.87403">
        <ele>1679.6</ele>
        <time>2009-07-26T09:35:52Z</time>
      </trkpt>
      <trkpt lat="44.7803" lon="5.87429">
        <ele>1675.5</ele>
        <time>2009-07-26T09:36:19Z</time>
      </trkpt>
      <trkpt lat="44.78044" lon="5.87467">
        <ele>1671.9</ele>
        <time>2009-07-26T09:36:50Z</time>
      </trkpt>
      <trkpt lat="44.78056" lon="5.87501">
        <ele>1667.8</ele>
        <time>2009-07-26T09:37:21Z</time>
      </trkpt>
      <trkpt lat="44.78082" lon="5.87508">
        <ele>1659.5</ele>
        <time>2009-07-26T09:37:48Z</time>
      </trkpt>
      <trkpt lat="44.78101" lon="5.87501">
        <ele>1654</ele>
        <time>2009-07-26T09:38:10Z</time>
      </trkpt>
      <trkpt lat="44.78114" lon="5.8751">
        <ele>1648.9</ele>
        <time>2009-07-26T09:38:29Z</time>
      </trkpt>
      <trkpt lat="44.78123" lon="5.87518">
        <ele>1645</ele>
        <time>2009-07-26T09:38:44Z</time>
      </trkpt>
      <trkpt lat="44.78151" lon="5.87525">
        <ele>1634.6</ele>
        <time>2009-07-26T09:39:13Z</time>
      </trkpt>
      <trkpt lat="44.78182" lon="5.87523">
        <ele>1622.5</ele>
        <time>2009-07-26T09:39:47Z</time>
      </trkpt>
      <trkpt lat="44.7822" lon="5.87514">
        <ele>1609.7</ele>
        <time>2009-07-26T09:40:28Z</time>
      </trkpt>
      <trkpt lat="44.78229" lon="5.87515">
        <ele>1608</ele>
        <time>2009-07-26T09:40:56Z</time>
      </trkpt>
      <trkpt lat="44.78263" lon="5.87514">
        <ele>1601.4</ele>
        <time>2009-07-26T09:41:36Z</time>
      </trkpt>
      <trkpt lat="44.78286" lon="5.87512">
        <ele>1595.5</ele>
        <time>2009-07-26T09:42:13Z</time>
      </trkpt>
      <trkpt lat="44.78286" lon="5.87528">
        <ele>1593.1</ele>
        <time>2009-07-26T09:42:33Z</time>
      </trkpt>
      <trkpt lat="44.7829" lon="5.87543">
        <ele>1586.2</ele>
        <time>2009-07-26T09:42:57Z</time>
      </trkpt>
      <trkpt lat="44.78286" lon="5.87554">
        <ele>1582.9</ele>
        <time>2009-07-26T09:43:29Z</time>
      </trkpt>
      <trkpt lat="44.78295" lon="5.8756">
        <ele>1578.7</ele>
        <time>2009-07-26T09:44:04Z</time>
      </trkpt>
      <trkpt lat="44.78302" lon="5.87568">
        <ele>1574.1</ele>
        <time>2009-07-26T09:44:27Z</time>
      </trkpt>
      <trkpt lat="44.78325" lon="5.87556">
        <ele>1572.2</ele>
        <time>2009-07-26T09:46:35Z</time>
      </trkpt>
      <trkpt lat="44.7837" lon="5.87543">
        <ele>1560.4</ele>
        <time>2009-07-26T09:47:10Z</time>
      </trkpt>
      <trkpt lat="44.78402" lon="5.87536">
        <ele>1556.9</ele>
        <time>2009-07-26T09:47:45Z</time>
      </trkpt>
      <trkpt lat="44.78418" lon="5.87528">
        <ele>1557</ele>
        <time>2009-07-26T09:48:08Z</time>
      </trkpt>
      <trkpt lat="44.78447" lon="5.87527">
        <ele>1556.9</ele>
        <time>2009-07-26T09:48:43Z</time>
      </trkpt>
      <trkpt lat="44.78449" lon="5.87525">
        <ele>1556.4</ele>
        <time>2009-07-26T09:49:16Z</time>
      </trkpt>
      <trkpt lat="44.78461" lon="5.87538">
        <ele>1557.8</ele>
        <time>2009-07-26T10:00:49Z</time>
      </trkpt>
      <trkpt lat="44.78536" lon="5.87577">
        <ele>1556.2</ele>
        <time>2009-07-26T10:01:14Z</time>
      </trkpt>
      <trkpt lat="44.78566" lon="5.8755">
        <ele>1556.6</ele>
        <time>2009-07-26T10:01:23Z</time>
      </trkpt>
    </trkseg>
  </trk>
</gpx>